createdAt,value
2018-05-13T00:00:57.459Z,100503.66
2018-05-13T00:03:28.494Z,100501.84
2018-05-13T00:05:58.938Z,100499.28
2018-05-13T00:08:29.534Z,100494.05
2018-05-13T00:11:01.603Z,100496.86
2018-05-13T00:13:32.642Z,100503.30
2018-05-13T00:16:04.284Z,100506.33
2018-05-13T00:18:34.736Z,100505.05
2018-05-13T00:21:09.777Z,100507.63
2018-05-13T00:23:40.528Z,100509.81
2018-05-13T00:26:11.271Z,100509.81
2018-05-13T00:28:42.891Z,100514.52
2018-05-13T00:31:20.294Z,100514.06
2018-05-13T00:33:52.074Z,100522.03
2018-05-13T00:36:30.163Z,100512.92
2018-05-13T00:39:01.635Z,100504.50
2018-05-13T00:41:33.761Z,100517.57
2018-05-13T00:44:04.250Z,100513.47
2018-05-13T00:46:34.655Z,100511.45
2018-05-13T00:49:05.237Z,100518.84
2018-05-13T00:51:38.297Z,100510.39
2018-05-13T00:54:17.755Z,100506.20
2018-05-13T00:56:50.340Z,100506.27
2018-05-13T00:59:21.027Z,100469.75
2018-05-13T01:01:53.145Z,100498.86
2018-05-13T01:04:23.825Z,100502.70
2018-05-13T01:06:54.210Z,100500.33
2018-05-13T01:09:25.318Z,100499.66
2018-05-13T01:11:58.246Z,100502.27
2018-05-13T01:14:29.286Z,100510.05
2018-05-13T01:17:00.842Z,100506.59
2018-05-13T01:19:31.801Z,100506.74
2018-05-13T01:22:05.200Z,100501.29
2018-05-13T01:24:36.121Z,100495.54
2018-05-13T01:27:11.960Z,100491.37
2018-05-13T01:29:44.055Z,100498.84
2018-05-13T01:35:08.267Z,100497.48
2018-05-13T01:37:38.982Z,100494.16
2018-05-13T01:40:09.448Z,100506.16
2018-05-13T01:42:42.691Z,100495.30
2018-05-13T01:45:26.531Z,100503.66
2018-05-13T01:47:57.522Z,100504.27
2018-05-13T01:50:35.584Z,100517.63
2018-05-13T01:53:09.560Z,100512.95
2018-05-13T01:55:40.744Z,100499.09
2018-05-13T01:58:11.271Z,100513.96
2018-05-13T02:00:42.817Z,100513.75
2018-05-13T02:03:13.602Z,100517.83
2018-05-13T02:05:43.954Z,100515.85
2018-05-13T02:08:14.777Z,100512.92
2018-05-13T02:10:45.918Z,100510.23
2018-05-13T02:13:31.081Z,100516.55
2018-05-13T02:16:01.878Z,100516.57
2018-05-13T02:18:32.396Z,100508.47
2018-05-13T02:21:05.926Z,100508.86
2018-05-13T02:23:39.601Z,100502.08
2018-05-13T02:26:09.964Z,100507.09
2018-05-13T02:28:42.861Z,100509.37
2018-05-13T02:31:18.659Z,100508.66
2018-05-13T02:33:50.401Z,100508.37
2018-05-13T02:36:20.771Z,100510.77
2018-05-13T02:38:51.179Z,100514.83
2018-05-13T02:41:22.823Z,100514.31
2018-05-13T02:43:53.475Z,100504.08
2018-05-13T02:46:24.154Z,100511.07
2018-05-13T02:48:54.367Z,100509.52
2018-05-13T02:51:24.934Z,100515.33
2018-05-13T02:53:55.623Z,100504.81
2018-05-13T02:56:40.704Z,100511.70
2018-05-13T02:59:11.464Z,100513.35
2018-05-13T03:01:52.597Z,100513.77
2018-05-13T03:04:23.441Z,100515.55
2018-05-13T03:06:53.826Z,100513.24
2018-05-13T03:09:24.221Z,100517.42
2018-05-13T03:11:54.638Z,100521.36
2018-05-13T03:14:25.009Z,100530.34
2018-05-13T03:16:55.790Z,100530.64
2018-05-13T03:19:26.097Z,100525.55
2018-05-13T03:21:56.875Z,100537.66
2018-05-13T03:24:29.236Z,100537.59
2018-05-13T03:26:59.737Z,100542.69
2018-05-13T03:29:30.163Z,100551.84
2018-05-13T03:32:01.003Z,100559.86
2018-05-13T03:34:31.470Z,100562.96
2018-05-13T03:37:01.817Z,100553.17
2018-05-13T03:39:32.277Z,100548.23
2018-05-13T03:42:02.588Z,100558.39
2018-05-13T03:44:34.445Z,100551.06
2018-05-13T03:47:05.328Z,100544.59
2018-05-13T03:49:35.987Z,100556.72
2018-05-13T03:52:07.306Z,100553.94
2018-05-13T03:54:37.765Z,100554.67
2018-05-13T03:57:14.896Z,100550.52
2018-05-13T03:59:45.599Z,100555.52
2018-05-13T04:02:16.471Z,100544.39
2018-05-13T04:04:48.236Z,100555.63
2018-05-13T04:07:19.710Z,100560.95
2018-05-13T04:12:08.224Z,100560.52
2018-05-13T04:15:42.076Z,100569.27
2018-05-13T04:18:13.045Z,100582.36
2018-05-13T04:20:43.481Z,100570.70
2018-05-13T04:23:13.909Z,100570.81
2018-05-13T04:25:44.612Z,100568.56
2018-05-13T04:28:14.924Z,100580.19
2018-05-13T04:30:45.560Z,100580.98
2018-05-13T04:33:16.343Z,100574.03
2018-05-13T04:35:46.720Z,100568.94
2018-05-13T04:38:17.636Z,100566.83
2018-05-13T04:40:53.985Z,100565.17
2018-05-13T04:43:24.802Z,100569.03
2018-05-13T04:45:55.705Z,100563.85
2018-05-13T04:48:26.326Z,100562.09
2018-05-13T04:50:57.194Z,100562.30
2018-05-13T04:53:27.663Z,100569.77
2018-05-13T04:55:58.172Z,100571.38
2018-05-13T04:58:28.530Z,100567.39
2018-05-13T05:00:59.488Z,100566.45
2018-05-13T05:03:30.156Z,100565.73
2018-05-13T05:06:00.819Z,100576.86
2018-05-13T05:08:31.162Z,100579.80
2018-05-13T05:11:01.977Z,100579.59
2018-05-13T05:13:32.316Z,100578.95
2018-05-13T05:16:03.286Z,100571.62
2018-05-13T05:18:34.118Z,100573.30
2018-05-13T05:21:04.687Z,100574.27
2018-05-13T05:23:35.280Z,100575.75
2018-05-13T05:26:06.011Z,100576.58
2018-05-13T05:28:36.543Z,100580.11
2018-05-13T05:31:07.072Z,100577.94
2018-05-13T05:33:38.150Z,100595.41
2018-05-13T05:36:20.783Z,100602.02
2018-05-13T05:38:54.647Z,100601.73
2018-05-13T05:41:26.043Z,100618.19
2018-05-13T05:43:58.772Z,100612.92
2018-05-13T05:46:29.731Z,100622.71
2018-05-13T05:49:07.020Z,100626.02
2018-05-13T05:51:37.773Z,100627.23
2018-05-13T05:54:18.810Z,100635.76
2018-05-13T05:56:50.708Z,100634.34
2018-05-13T05:59:21.423Z,100629.59
2018-05-13T06:01:52.595Z,100636.43
2018-05-13T06:04:23.354Z,100639.84
2018-05-13T06:06:54.891Z,100644.89
2018-05-13T06:09:26.458Z,100655.66
2018-05-13T06:12:00.523Z,100660.23
2018-05-13T06:14:31.644Z,100662.33
2018-05-13T06:17:03.466Z,100669.49
2018-05-13T06:19:41.062Z,100682.31
2018-05-13T06:22:11.886Z,100683.37
2018-05-13T06:24:42.624Z,100681.64
2018-05-13T06:27:13.135Z,100676.89
2018-05-13T06:29:44.999Z,100678.74
2018-05-13T06:32:15.753Z,100673.66
2018-05-13T06:34:46.173Z,100673.14
2018-05-13T06:37:17.617Z,100677.89
2018-05-13T06:39:48.008Z,100674.34
2018-05-13T06:42:25.808Z,100681.53
2018-05-13T06:44:56.253Z,100679.78
2018-05-13T06:47:28.696Z,100682.98
2018-05-13T06:50:02.148Z,100688.59
2018-05-13T06:52:32.936Z,100686.81
2018-05-13T06:55:13.025Z,100682.09
2018-05-13T06:57:44.371Z,100678.66
2018-05-13T07:00:18.691Z,100683.56
2018-05-13T07:02:49.445Z,100680.80
2018-05-13T07:05:20.591Z,100675.56
2018-05-13T07:07:52.713Z,100658.47
2018-05-13T07:10:24.754Z,100661.78
2018-05-13T07:12:56.141Z,100661.83
2018-05-13T07:15:43.762Z,100655.75
2018-05-13T07:18:14.227Z,100660.90
2018-05-13T07:20:45.461Z,100667.43
2018-05-13T07:23:18.081Z,100684.66
2018-05-13T07:25:48.895Z,100692.14
2018-05-13T07:28:20.343Z,100690.45
2018-05-13T07:30:51.278Z,100691.73
2018-05-13T07:33:25.197Z,100690.73
2018-05-13T07:35:58.167Z,100687.28
2018-05-13T07:38:29.243Z,100696.09
2018-05-13T07:41:00.701Z,100687.04
2018-05-13T07:43:31.140Z,100694.28
2018-05-13T07:46:05.857Z,100692.27
2018-05-13T07:48:37.252Z,100705.63
2018-05-13T07:51:20.529Z,100696.77
2018-05-13T07:53:52.389Z,100697.58
2018-05-13T07:56:23.834Z,100703.45
2018-05-13T07:58:55.415Z,100694.56
2018-05-13T08:01:34.434Z,100706.61
2018-05-13T08:04:06.270Z,100715.92
2018-05-13T08:06:40.225Z,100728.78
2018-05-13T08:09:17.250Z,100744.23
2018-05-13T08:11:52.355Z,100741.42
2018-05-13T08:14:23.263Z,100745.27
2018-05-13T08:16:56.913Z,100738.59
2018-05-13T08:19:28.264Z,100740.91
2018-05-13T08:24:41.862Z,100750.71
2018-05-13T08:27:17.494Z,100753.77
2018-05-13T08:29:49.536Z,100749.44
2018-05-13T08:32:31.117Z,100750.56
2018-05-13T08:37:57.680Z,100741.42
2018-05-13T08:40:28.678Z,100727.05
2018-05-13T08:43:01.240Z,100733.58
2018-05-13T08:45:32.056Z,100750.39
2018-05-13T08:48:03.492Z,100758.95
2018-05-13T08:50:36.841Z,100768.70
2018-05-13T08:58:39.937Z,100735.59
2018-05-13T09:01:16.697Z,100723.33
2018-05-13T09:03:48.122Z,100691.99
2018-05-13T09:06:21.469Z,100683.91
2018-05-13T09:08:57.339Z,100684.59
2018-05-13T09:11:30.024Z,100689.62
2018-05-13T09:14:06.972Z,100703.55
2018-05-13T09:16:45.440Z,100717.48
2018-05-13T09:19:18.762Z,100725.14
2018-05-13T09:21:54.315Z,100740.69
2018-05-13T09:24:28.094Z,100747.73
2018-05-13T09:27:13.699Z,100755.27
2018-05-13T09:29:45.251Z,100767.16
2018-05-13T09:32:30.384Z,100769.50
2018-05-13T09:35:05.609Z,100765.74
2018-05-13T09:37:37.590Z,100760.31
2018-05-13T09:40:19.568Z,100770.20
2018-05-13T09:42:57.968Z,100762.78
2018-05-13T09:45:32.225Z,100757.16
2018-05-13T09:48:05.913Z,100777.59
2018-05-13T09:50:37.392Z,100783.03
2018-05-13T09:53:10.157Z,100790.33
2018-05-13T09:55:43.858Z,100785.13
2018-05-13T09:58:16.650Z,100778.36
2018-05-13T10:00:47.922Z,100773.02
2018-05-13T10:03:20.781Z,100771.50
2018-05-13T10:05:55.723Z,100793.91
2018-05-13T10:08:29.007Z,100798.44
2018-05-13T10:11:01.053Z,100787.73
2018-05-13T10:13:31.980Z,100785.01
2018-05-13T10:16:09.322Z,100776.45
2018-05-13T10:18:45.358Z,100771.14
2018-05-13T10:21:18.432Z,100766.91
2018-05-13T10:23:53.395Z,100772.69
2018-05-13T10:26:25.125Z,100776.64
2018-05-13T10:29:01.893Z,100789.58
2018-05-13T10:34:31.448Z,100789.31
2018-05-13T10:37:05.074Z,100787.59
2018-05-13T10:42:37.832Z,100791.62
2018-05-13T10:45:09.233Z,100781.11
2018-05-13T10:47:56.234Z,100783.14
2018-05-13T10:50:28.188Z,100801.27
2018-05-13T10:53:02.522Z,100805.81
2018-05-13T10:55:36.899Z,100810.37
2018-05-13T10:58:15.916Z,100807.34
2018-05-13T11:00:49.572Z,100805.59
2018-05-13T11:03:23.320Z,100796.38
2018-05-13T11:05:57.541Z,100792.77
2018-05-13T11:08:30.211Z,100786.53
2018-05-13T11:11:02.626Z,100790.23
2018-05-13T11:13:34.951Z,100780.25
2018-05-13T11:16:07.755Z,100788.47
2018-05-13T11:18:38.772Z,100790.03
2018-05-13T11:21:14.162Z,100787.13
2018-05-13T11:23:44.915Z,100784.27
2018-05-13T11:26:20.484Z,100779.55
2018-05-13T11:28:52.687Z,100782.00
2018-05-13T11:31:26.670Z,100779.89
2018-05-13T11:33:58.426Z,100765.16
2018-05-13T11:36:32.170Z,100759.40
2018-05-13T11:39:02.749Z,100778.00
2018-05-13T11:41:34.806Z,100788.30
2018-05-13T11:44:14.639Z,100806.39
2018-05-13T11:46:46.784Z,100812.58
2018-05-13T11:49:19.153Z,100815.84
2018-05-13T11:51:55.917Z,100819.77
2018-05-13T11:54:28.254Z,100823.97
2018-05-13T11:57:00.377Z,100822.33
2018-05-13T11:59:32.260Z,100812.86
2018-05-13T12:04:59.378Z,100809.69
2018-05-13T12:07:48.336Z,100799.52
2018-05-13T12:10:31.632Z,100790.06
2018-05-13T12:13:10.397Z,100783.88
2018-05-13T12:15:46.596Z,100784.77
2018-05-13T12:18:18.483Z,100789.70
2018-05-13T12:20:55.756Z,100776.25
2018-05-13T12:23:30.199Z,100781.61
2018-05-13T12:26:03.343Z,100782.98
2018-05-13T12:28:37.697Z,100786.05
2018-05-13T12:31:12.940Z,100791.31
2018-05-13T12:33:46.319Z,100794.32
2018-05-13T12:36:26.586Z,100812.87
2018-05-13T12:39:02.098Z,100808.84
2018-05-13T12:41:33.428Z,100805.50
2018-05-13T12:44:04.372Z,100802.11
2018-05-13T12:46:37.834Z,100811.95
2018-05-13T12:49:08.491Z,100815.02
2018-05-13T12:51:39.096Z,100805.05
2018-05-13T12:54:10.804Z,100799.16
2018-05-13T12:56:42.175Z,100778.64
2018-05-13T12:59:18.807Z,100773.92
2018-05-13T13:01:55.932Z,100777.72
2018-05-13T13:04:26.803Z,100780.79
2018-05-13T13:06:58.592Z,100782.80
2018-05-13T13:09:30.056Z,100784.53
2018-05-13T13:12:01.557Z,100780.23
2018-05-13T13:17:12.476Z,100769.06
2018-05-13T13:19:51.108Z,100768.61
2018-05-13T13:22:22.347Z,100756.70
2018-05-13T13:24:53.279Z,100762.27
2018-05-13T13:27:25.825Z,100763.94
2018-05-13T13:29:56.415Z,100758.77
2018-05-13T13:32:27.312Z,100751.11
2018-05-13T13:35:00.297Z,100750.60
2018-05-13T13:37:31.536Z,100750.34
2018-05-13T13:40:02.597Z,100729.42
2018-05-13T13:42:40.527Z,100725.66
2018-05-13T13:45:15.900Z,100732.12
2018-05-13T13:47:55.262Z,100733.81
2018-05-13T13:50:34.317Z,100733.59
2018-05-13T13:53:06.533Z,100718.78
2018-05-13T13:55:40.734Z,100727.23
2018-05-13T13:58:12.232Z,100715.00
2018-05-13T14:00:43.131Z,100718.17
2018-05-13T14:03:15.572Z,100737.56
2018-05-13T14:05:46.591Z,100738.09
2018-05-13T14:08:17.339Z,100721.86
2018-05-13T14:10:47.847Z,100716.50
2018-05-13T14:13:19.289Z,100719.38
2018-05-13T14:15:53.346Z,100718.91
2018-05-13T14:21:22.028Z,100711.88
2018-05-13T14:23:54.913Z,100716.86
2018-05-13T14:26:30.813Z,100711.83
2018-05-13T14:29:02.685Z,100717.44
2018-05-13T14:31:42.123Z,100703.94
2018-05-13T14:34:15.819Z,100703.89
2018-05-13T14:36:46.680Z,100696.79
2018-05-13T14:39:21.059Z,100700.08
2018-05-13T14:41:53.529Z,100702.31
2018-05-13T14:44:24.992Z,100702.91
2018-05-13T14:46:56.786Z,100685.41
2018-05-13T14:49:28.080Z,100698.12
2018-05-13T14:51:59.814Z,100697.02
2018-05-13T14:54:31.286Z,100689.59
2018-05-13T14:57:01.650Z,100689.77
2018-05-13T14:59:33.161Z,100697.56
2018-05-13T15:02:03.952Z,100703.84
2018-05-13T15:04:40.304Z,100706.73
2018-05-13T15:07:12.548Z,100698.72
2018-05-13T15:09:43.237Z,100714.34
2018-05-13T15:12:21.677Z,100711.23
2018-05-13T15:14:55.728Z,100720.28
2018-05-13T15:17:29.155Z,100717.72
2018-05-13T15:20:01.011Z,100715.91
2018-05-13T15:22:38.847Z,100740.30
2018-05-13T15:25:18.836Z,100737.14
2018-05-13T15:27:50.135Z,100738.22
2018-05-13T15:30:38.535Z,100745.87
2018-05-13T15:33:17.248Z,100738.91
2018-05-13T15:35:53.791Z,100732.73
2018-05-13T15:38:25.043Z,100726.80
2018-05-13T15:43:52.369Z,100734.49
2018-05-13T15:46:26.127Z,100725.03
2018-05-13T15:48:57.869Z,100728.78
2018-05-13T15:51:34.731Z,100713.59
2018-05-13T15:54:13.159Z,100717.63
2018-05-13T15:56:55.249Z,100719.65
2018-05-13T15:59:31.009Z,100721.21
2018-05-13T16:02:03.752Z,100720.27
2018-05-13T16:04:37.035Z,100724.73
2018-05-13T16:07:13.888Z,100727.38
2018-05-13T16:09:53.632Z,100737.92
2018-05-13T16:12:35.770Z,100734.55
2018-05-13T16:15:13.961Z,100733.97
2018-05-13T16:17:55.095Z,100728.07
2018-05-13T16:22:59.225Z,100746.48
2018-05-13T16:25:35.959Z,100731.83
2018-05-13T16:28:07.785Z,100735.73
2018-05-13T16:30:39.409Z,100733.53
2018-05-13T16:33:10.609Z,100732.67
2018-05-13T16:35:44.046Z,100721.93
2018-05-13T16:38:15.264Z,100722.13
2018-05-13T16:40:47.862Z,100714.63
2018-05-13T16:43:19.720Z,100702.11
2018-05-13T16:45:50.945Z,100725.44
2018-05-13T16:48:21.490Z,100721.70
2018-05-13T16:50:52.484Z,100720.67
2018-05-13T16:53:24.365Z,100713.28
2018-05-13T16:55:56.349Z,100721.70
2018-05-13T16:58:28.339Z,100714.98
2018-05-13T17:01:08.700Z,100717.46
2018-05-13T17:03:40.830Z,100723.52
2018-05-13T17:06:16.483Z,100727.39
2018-05-13T17:08:49.463Z,100720.23
2018-05-13T17:11:32.036Z,100713.84
2018-05-13T17:14:06.687Z,100721.13
2018-05-13T17:16:41.517Z,100718.93
2018-05-13T17:19:12.336Z,100722.05
2018-05-13T17:21:54.924Z,100723.81
2018-05-13T17:24:26.601Z,100721.91
2018-05-13T17:26:58.874Z,100733.16
2018-05-13T17:29:35.308Z,100732.19
2018-05-13T17:32:07.447Z,100728.82
2018-05-13T17:34:40.832Z,100734.75
2018-05-13T17:37:12.493Z,100733.23
2018-05-13T17:39:58.504Z,100745.20
2018-05-13T17:42:42.502Z,100749.03
2018-05-13T17:51:16.716Z,100762.05
2018-05-13T17:53:53.590Z,100758.67
2018-05-13T17:56:27.440Z,100762.30
2018-05-13T17:59:02.141Z,100757.47
2018-05-13T18:01:37.998Z,100762.68
2018-05-13T18:04:10.182Z,100770.59
2018-05-13T18:06:41.754Z,100769.87
2018-05-13T18:09:13.179Z,100780.02
2018-05-13T18:11:46.792Z,100777.66
2018-05-13T18:14:19.131Z,100772.78
2018-05-13T18:16:50.369Z,100778.88
2018-05-13T18:19:21.447Z,100772.44
2018-05-13T18:21:51.949Z,100771.05
2018-05-13T18:24:24.717Z,100763.31
2018-05-13T18:27:01.064Z,100770.84
2018-05-13T18:29:39.759Z,100776.77
2018-05-13T18:32:16.020Z,100771.95
2018-05-13T18:34:47.676Z,100770.86
2018-05-13T18:37:19.644Z,100780.48
2018-05-13T18:39:50.685Z,100776.08
2018-05-13T18:42:25.877Z,100792.66
2018-05-13T18:44:59.014Z,100786.55
2018-05-13T18:47:33.300Z,100785.72
2018-05-13T18:50:04.180Z,100791.45
2018-05-13T18:52:34.514Z,100786.59
2018-05-13T18:55:08.919Z,100790.95
2018-05-13T18:57:40.785Z,100786.74
2018-05-13T19:00:16.253Z,100787.81
2018-05-13T19:02:46.845Z,100789.67
2018-05-13T19:05:21.899Z,100798.09
2018-05-13T19:08:06.510Z,100792.97
2018-05-13T19:10:37.643Z,100788.05
2018-05-13T19:13:08.565Z,100783.19
2018-05-13T19:15:39.549Z,100785.63
2018-05-13T19:18:10.367Z,100768.56
2018-05-13T19:20:43.244Z,100756.28
2018-05-13T19:23:14.755Z,100750.81
2018-05-13T19:25:50.476Z,100762.79
2018-05-13T19:28:22.333Z,100770.73
2018-05-13T19:30:53.804Z,100769.18
2018-05-13T19:33:53.124Z,100774.11
2018-05-13T19:36:49.420Z,100772.63
2018-05-13T19:39:32.404Z,100770.38
2018-05-13T19:42:06.429Z,100765.45
2018-05-13T19:44:43.890Z,100770.41
2018-05-13T19:47:15.869Z,100768.02
2018-05-13T19:49:49.368Z,100760.52
2018-05-13T19:52:22.034Z,100763.73
2018-05-13T19:54:55.338Z,100767.80
2018-05-13T19:57:28.993Z,100771.24
2018-05-13T19:59:59.898Z,100758.23
2018-05-13T20:02:31.895Z,100755.48
2018-05-13T20:05:05.742Z,100765.77
2018-05-13T20:07:40.970Z,100765.75
2018-05-13T20:10:12.261Z,100768.19
2018-05-13T20:12:44.361Z,100760.96
2018-05-13T20:15:36.940Z,100767.70
2018-05-13T20:18:14.098Z,100774.52
2018-05-13T20:20:45.757Z,100779.30
2018-05-13T20:23:29.045Z,100785.80
2018-05-13T20:26:02.057Z,100789.36
2018-05-13T20:28:34.160Z,100788.44
2018-05-13T20:31:06.153Z,100787.01
2018-05-13T20:33:41.368Z,100797.88
2018-05-13T20:36:11.954Z,100801.19
2018-05-13T20:38:44.814Z,100798.83
2018-05-13T20:41:16.040Z,100801.40
2018-05-13T20:43:47.694Z,100800.09
2018-05-13T20:46:20.502Z,100813.94
2018-05-13T20:48:55.091Z,100819.89
2018-05-13T20:51:26.668Z,100831.64
2018-05-13T20:53:58.066Z,100848.95
2018-05-13T20:59:09.565Z,100864.87
2018-05-13T21:01:48.029Z,100871.11
2018-05-13T21:04:19.249Z,100878.61
2018-05-13T21:06:58.278Z,100877.35
2018-05-13T21:09:33.071Z,100886.02
2018-05-13T21:12:04.243Z,100883.00
2018-05-13T21:14:36.285Z,100876.78
2018-05-13T21:17:09.850Z,100877.11
2018-05-13T21:19:49.103Z,100872.68
2018-05-13T21:22:20.092Z,100864.56
2018-05-13T21:24:52.444Z,100856.12
2018-05-13T21:27:25.955Z,100852.22
2018-05-13T21:29:57.849Z,100848.45
2018-05-13T21:32:29.212Z,100828.66
2018-05-13T21:35:09.472Z,100829.08
2018-05-13T21:37:41.954Z,100818.54
2018-05-13T21:40:12.672Z,100824.40
2018-05-13T21:42:43.435Z,100815.62
2018-05-13T21:45:17.234Z,100814.40
2018-05-13T21:47:48.030Z,100807.38
2018-05-13T21:50:21.453Z,100810.83
2018-05-13T21:52:55.127Z,100799.06
2018-05-13T21:55:28.708Z,100790.77
2018-05-13T21:57:59.530Z,100796.06
2018-05-13T22:00:30.882Z,100786.80
2018-05-13T22:03:02.296Z,100791.31
2018-05-13T22:05:34.066Z,100793.58
2018-05-13T22:08:06.584Z,100795.95
2018-05-13T22:10:56.783Z,100810.95
2018-05-13T22:13:27.725Z,100796.73
2018-05-13T22:16:04.525Z,100795.86
2018-05-13T22:18:36.717Z,100809.80
2018-05-13T22:21:08.125Z,100808.66
2018-05-13T22:23:38.882Z,100810.42
2018-05-13T22:26:10.579Z,100801.61
2018-05-13T22:28:52.282Z,100807.33
2018-05-13T22:31:28.332Z,100795.94
2018-05-13T22:33:58.859Z,100803.16
2018-05-13T22:36:29.830Z,100792.14
2018-05-13T22:39:00.788Z,100792.49
2018-05-13T22:41:33.541Z,100790.05
2018-05-13T22:44:04.466Z,100792.91
2018-05-13T22:46:50.259Z,100771.84
2018-05-13T22:49:20.849Z,100771.33
2018-05-13T22:51:51.178Z,100762.22
2018-05-13T22:54:22.015Z,100767.31
2018-05-13T22:56:53.582Z,100765.28
2018-05-13T22:59:24.515Z,100764.11
2018-05-13T23:01:55.726Z,100759.06
2018-05-13T23:04:26.133Z,100769.15
2018-05-13T23:06:56.553Z,100766.84
2018-05-13T23:09:27.024Z,100763.05
2018-05-13T23:11:57.479Z,100761.36
2018-05-13T23:14:28.690Z,100744.89
2018-05-13T23:16:59.806Z,100741.54
2018-05-13T23:19:30.125Z,100718.23
2018-05-13T23:22:00.459Z,100721.16
2018-05-13T23:24:30.892Z,100721.81
2018-05-13T23:27:01.601Z,100715.14
2018-05-13T23:29:32.129Z,100714.54
2018-05-13T23:32:03.067Z,100712.78
2018-05-13T23:34:34.341Z,100721.49
2018-05-13T23:37:04.944Z,100718.48
2018-05-13T23:39:36.610Z,100725.77
2018-05-13T23:42:11.887Z,100725.78
2018-05-13T23:44:42.630Z,100729.48
2018-05-13T23:47:13.472Z,100721.33
2018-05-13T23:49:44.548Z,100724.86
2018-05-13T23:52:15.649Z,100716.06
2018-05-13T23:54:51.760Z,100713.38
2018-05-13T23:57:23.108Z,100711.37
2018-05-13T23:59:56.646Z,100712.71
